createdAt,value
2023-08-08T00:00:29.066Z,2.77
2023-08-08T00:02:55.649Z,9.20
2023-08-08T00:05:22.249Z,6.03
2023-08-08T00:07:48.860Z,4.30
2023-08-08T00:10:15.367Z,5.67
2023-08-08T00:12:41.859Z,3.33
2023-08-08T00:15:08.558Z,2.90
2023-08-08T00:17:35.197Z,3.53
2023-08-08T00:20:02.107Z,3.90
2023-08-08T00:22:28.605Z,7.93
2023-08-08T00:24:55.060Z,5.00
2023-08-08T00:27:21.767Z,11.17
2023-08-08T00:29:48.525Z,19.43
2023-08-08T00:32:15.149Z,18.17
2023-08-08T00:34:42.448Z,4.53
2023-08-08T00:37:08.975Z,4.60
2023-08-08T00:39:35.483Z,4.73
2023-08-08T00:42:02.054Z,3.80
2023-08-08T00:44:28.584Z,3.67
2023-08-08T00:46:55.576Z,3.63
2023-08-08T00:49:22.266Z,3.87
2023-08-08T00:51:48.839Z,4.77
2023-08-08T00:54:16.565Z,6.43
2023-08-08T00:56:43.044Z,2.87
2023-08-08T00:59:10.003Z,4.33
2023-08-08T01:01:37.011Z,3.90
2023-08-08T01:04:07.226Z,2.57
2023-08-08T01:06:42.432Z,3.30
2023-08-08T01:09:17.272Z,3.63
2023-08-08T01:11:45.052Z,3.80
2023-08-08T01:14:11.995Z,5.60
2023-08-08T01:16:40.464Z,2.80
2023-08-08T01:19:07.858Z,5.03
2023-08-08T01:21:36.420Z,4.10
2023-08-08T01:24:19.080Z,2.43
2023-08-08T01:26:46.308Z,2.97
2023-08-08T01:29:12.816Z,3.40
2023-08-08T01:31:39.300Z,3.50
2023-08-08T01:34:05.883Z,3.30
2023-08-08T01:36:44.030Z,2.93
2023-08-08T01:39:15.027Z,5.20
2023-08-08T01:41:43.057Z,5.00
2023-08-08T01:44:10.005Z,4.83
2023-08-08T01:46:37.589Z,2.67
2023-08-08T01:49:04.167Z,3.77
2023-08-08T01:51:30.671Z,3.70
2023-08-08T01:53:57.335Z,3.90
2023-08-08T01:56:23.805Z,6.00
2023-08-08T01:58:50.328Z,5.17
2023-08-08T02:01:16.852Z,3.40
2023-08-08T02:03:43.416Z,15.90
2023-08-08T02:06:11.227Z,6.47
2023-08-08T02:08:38.232Z,9.90
2023-08-08T02:11:05.009Z,55.07
2023-08-08T02:13:31.657Z,18.97
2023-08-08T02:15:58.329Z,23.80
2023-08-08T02:18:24.846Z,17.00
2023-08-08T02:20:51.351Z,11.03
2023-08-08T02:23:17.868Z,6.23
2023-08-08T02:25:44.368Z,3.93
2023-08-08T02:28:10.835Z,20.27
2023-08-08T02:30:38.424Z,5.20
2023-08-08T02:33:05.373Z,9.97
2023-08-08T02:35:31.978Z,7.63
2023-08-08T02:37:58.574Z,37.13
2023-08-08T02:40:25.204Z,60.13
2023-08-08T02:42:51.753Z,36.00
2023-08-08T02:45:18.216Z,19.00
2023-08-08T02:47:44.811Z,10.43
2023-08-08T02:50:11.374Z,3.97
2023-08-08T02:52:37.909Z,3.70
2023-08-08T02:55:05.546Z,3.30
2023-08-08T02:57:32.178Z,3.60
2023-08-08T02:59:59.173Z,6.73
2023-08-08T03:02:26.727Z,2.90
2023-08-08T03:04:53.364Z,3.70
2023-08-08T03:07:22.338Z,2.80
2023-08-08T03:09:48.861Z,2.70
2023-08-08T03:12:15.473Z,6.40
2023-08-08T03:14:42.265Z,8.80
2023-08-08T03:17:08.756Z,3.10
2023-08-08T03:19:35.421Z,4.60
2023-08-08T03:22:03.677Z,7.23
2023-08-08T03:24:30.610Z,3.10
2023-08-08T03:26:57.119Z,4.60
2023-08-08T03:29:23.688Z,5.10
2023-08-08T03:31:50.175Z,4.10
2023-08-08T03:34:17.681Z,3.70
2023-08-08T03:36:44.677Z,5.03
2023-08-08T03:39:11.724Z,3.80
2023-08-08T03:41:38.441Z,4.50
2023-08-08T03:44:05.625Z,3.40
2023-08-08T03:46:32.259Z,7.87
2023-08-08T03:48:58.803Z,4.13
2023-08-08T03:51:25.334Z,3.03
2023-08-08T03:53:51.819Z,2.50
2023-08-08T03:56:18.337Z,3.40
2023-08-08T03:58:44.893Z,3.40
2023-08-08T04:01:11.506Z,4.93
2023-08-08T04:03:38.268Z,3.23
2023-08-08T04:06:04.842Z,2.53
2023-08-08T04:08:33.091Z,3.53
2023-08-08T04:10:59.644Z,2.97
2023-08-08T04:13:26.163Z,2.67
2023-08-08T04:15:53.001Z,2.80
2023-08-08T04:18:19.576Z,2.00
2023-08-08T04:20:48.972Z,2.17
2023-08-08T04:23:15.497Z,2.67
2023-08-08T04:25:41.997Z,2.13
2023-08-08T04:28:08.545Z,3.70
2023-08-08T04:30:36.250Z,2.23
2023-08-08T04:33:02.803Z,5.00
2023-08-08T04:35:29.458Z,3.57
2023-08-08T04:37:56.029Z,3.20
2023-08-08T04:40:22.561Z,2.27
2023-08-08T04:42:49.093Z,7.33
2023-08-08T04:45:15.830Z,5.27
2023-08-08T04:47:42.341Z,4.60
2023-08-08T04:50:09.177Z,3.23
2023-08-08T04:52:35.660Z,3.90
2023-08-08T04:55:02.237Z,3.07
2023-08-08T04:57:28.745Z,3.07
2023-08-08T04:59:55.218Z,4.83
2023-08-08T05:02:21.740Z,3.40
2023-08-08T05:04:48.242Z,3.60
2023-08-08T05:07:14.759Z,3.90
2023-08-08T05:09:41.547Z,3.40
2023-08-08T05:12:08.405Z,8.13
2023-08-08T05:14:34.934Z,4.70
2023-08-08T05:17:03.552Z,5.40
2023-08-08T05:19:30.078Z,5.13
2023-08-08T05:21:56.599Z,4.50
2023-08-08T05:24:23.285Z,4.23
2023-08-08T05:26:49.967Z,3.70
2023-08-08T05:29:16.485Z,4.93
2023-08-08T05:31:42.972Z,4.60
2023-08-08T05:34:09.492Z,2.90
2023-08-08T05:36:36.015Z,8.23
2023-08-08T05:39:02.506Z,3.33
2023-08-08T05:41:29.015Z,3.07
2023-08-08T05:43:55.525Z,3.90
2023-08-08T05:46:22.367Z,5.23
2023-08-08T05:48:48.944Z,3.83
2023-08-08T05:51:15.419Z,3.30
2023-08-08T05:53:41.936Z,3.00
2023-08-08T05:56:09.913Z,2.37
2023-08-08T05:58:38.316Z,3.70
2023-08-08T06:01:10.261Z,3.00
2023-08-08T06:03:38.874Z,2.07
2023-08-08T06:06:05.745Z,2.30
2023-08-08T06:08:32.928Z,3.60
2023-08-08T06:10:59.527Z,3.73
2023-08-08T06:13:26.073Z,2.97
2023-08-08T06:15:52.563Z,4.10
2023-08-08T06:18:19.112Z,3.57
2023-08-08T06:20:45.685Z,4.20
2023-08-08T06:23:12.353Z,3.77
2023-08-08T06:25:39.698Z,4.33
2023-08-08T06:28:07.676Z,6.00
2023-08-08T06:30:34.225Z,2.50
2023-08-08T06:33:00.846Z,2.30
2023-08-08T06:35:27.388Z,3.60
2023-08-08T06:37:53.958Z,2.40
2023-08-08T06:40:20.465Z,2.60
2023-08-08T06:42:46.978Z,3.70
2023-08-08T06:45:13.501Z,2.70
2023-08-08T06:47:40.018Z,2.97
2023-08-08T06:50:07.266Z,5.70
2023-08-08T06:52:33.760Z,2.97
2023-08-08T06:55:00.283Z,2.77
2023-08-08T06:57:26.800Z,4.27
2023-08-08T06:59:53.887Z,3.50
2023-08-08T07:02:21.710Z,3.30
2023-08-08T07:04:48.293Z,3.37
2023-08-08T07:07:14.791Z,3.80
2023-08-08T07:09:42.735Z,2.90
2023-08-08T07:12:09.543Z,4.13
2023-08-08T07:14:36.061Z,6.00
2023-08-08T07:17:04.768Z,3.80
2023-08-08T07:19:31.266Z,4.23
2023-08-08T07:21:57.954Z,2.33
2023-08-08T07:24:29.498Z,2.87
2023-08-08T07:27:00.074Z,3.20
2023-08-08T07:29:26.720Z,2.67
2023-08-08T07:31:54.230Z,5.80
2023-08-08T07:34:21.200Z,2.50
2023-08-08T07:36:48.361Z,3.97
2023-08-08T07:39:15.028Z,3.03
2023-08-08T07:41:41.693Z,2.73
2023-08-08T07:44:08.204Z,4.27
2023-08-08T07:46:34.820Z,2.47
2023-08-08T07:49:04.569Z,2.03
2023-08-08T07:51:31.596Z,2.30
2023-08-08T07:53:58.312Z,1.90
2023-08-08T07:56:24.888Z,3.27
2023-08-08T07:58:51.379Z,3.13
2023-08-08T08:01:17.982Z,5.20
2023-08-08T08:03:44.653Z,2.40
2023-08-08T08:06:11.258Z,2.33
2023-08-08T08:08:37.831Z,2.27
2023-08-08T08:11:04.714Z,2.60
2023-08-08T08:13:31.246Z,1.80
2023-08-08T08:15:57.821Z,3.40
2023-08-08T08:18:24.317Z,6.10
2023-08-08T08:20:50.792Z,1.93
2023-08-08T08:23:17.611Z,3.07
2023-08-08T08:25:44.202Z,3.60
2023-08-08T08:28:10.706Z,2.50
2023-08-08T08:30:37.863Z,3.10
2023-08-08T08:33:05.396Z,2.37
2023-08-08T08:35:31.930Z,2.73
2023-08-08T08:37:58.428Z,2.20
2023-08-08T08:40:25.205Z,2.10
2023-08-08T08:42:51.794Z,2.37
2023-08-08T08:45:21.824Z,2.23
2023-08-08T08:47:49.646Z,2.97
2023-08-08T08:50:17.098Z,3.10
2023-08-08T08:52:44.279Z,2.17
2023-08-08T08:55:10.935Z,1.70
2023-08-08T08:57:38.235Z,3.57
2023-08-08T09:00:07.074Z,1.87
2023-08-08T09:02:33.639Z,4.50
2023-08-08T09:05:03.129Z,2.03
2023-08-08T09:07:30.999Z,2.23
2023-08-08T09:09:57.484Z,3.20
2023-08-08T09:12:25.272Z,2.50
2023-08-08T09:14:57.827Z,3.77
2023-08-08T09:17:42.149Z,3.87
2023-08-08T09:20:14.224Z,2.20
2023-08-08T09:22:40.782Z,1.93
2023-08-08T09:25:09.008Z,1.87
2023-08-08T09:27:36.320Z,2.03
2023-08-08T09:30:03.910Z,3.57
2023-08-08T09:32:33.422Z,2.33
2023-08-08T09:35:00.232Z,2.13
2023-08-08T09:37:27.427Z,2.07
2023-08-08T09:40:00.629Z,2.70
2023-08-08T09:42:27.604Z,2.07
2023-08-08T09:44:54.553Z,4.80
2023-08-08T09:47:23.191Z,1.83
2023-08-08T09:49:50.307Z,2.77
2023-08-08T09:52:17.564Z,1.50
2023-08-08T09:54:44.261Z,19.03
2023-08-08T09:57:11.140Z,2.13
2023-08-08T09:59:38.607Z,2.10
2023-08-08T10:02:06.329Z,3.87
2023-08-08T10:04:34.092Z,3.63
2023-08-08T10:07:00.583Z,3.30
2023-08-08T10:09:27.471Z,2.40
2023-08-08T10:11:55.813Z,4.23
2023-08-08T10:14:30.104Z,1.67
2023-08-08T10:16:56.744Z,1.67
2023-08-08T10:19:24.146Z,2.47
2023-08-08T10:21:57.983Z,2.67
2023-08-08T10:24:24.707Z,3.30
2023-08-08T10:27:00.590Z,1.93
2023-08-08T10:29:28.457Z,2.47
2023-08-08T10:32:00.362Z,1.70
2023-08-08T10:34:41.595Z,2.90
2023-08-08T10:37:13.393Z,2.07
2023-08-08T10:39:52.528Z,1.33
2023-08-08T10:42:20.635Z,1.57
2023-08-08T10:44:58.398Z,1.70
2023-08-08T10:47:26.197Z,1.80
2023-08-08T10:50:10.115Z,3.10
2023-08-08T10:52:53.015Z,2.17
2023-08-08T10:55:27.864Z,1.93
2023-08-08T10:58:05.500Z,2.60
2023-08-08T11:00:34.396Z,2.80
2023-08-08T11:03:01.480Z,2.30
2023-08-08T11:05:32.556Z,2.00
2023-08-08T11:08:00.259Z,2.70
2023-08-08T11:10:32.076Z,2.00
2023-08-08T11:13:06.831Z,4.10
2023-08-08T11:15:34.248Z,4.73
2023-08-08T11:18:01.513Z,1.87
2023-08-08T11:20:32.075Z,2.90
2023-08-08T11:22:58.769Z,2.30
2023-08-08T11:25:29.969Z,2.43
2023-08-08T11:27:57.723Z,2.20
2023-08-08T11:30:25.423Z,5.40
2023-08-08T11:35:25.557Z,4.50
2023-08-08T11:37:57.638Z,2.53
2023-08-08T11:40:25.875Z,1.70
2023-08-08T11:42:52.964Z,2.53
2023-08-08T11:45:19.667Z,1.90
2023-08-08T11:47:54.428Z,2.23
2023-08-08T11:50:25.294Z,1.73
2023-08-08T11:52:56.279Z,1.50
2023-08-08T11:55:28.847Z,2.10
2023-08-08T11:57:57.724Z,2.63
2023-08-08T12:00:28.198Z,3.70
2023-08-08T12:02:54.775Z,1.60
2023-08-08T12:05:23.409Z,2.03
2023-08-08T12:07:50.347Z,1.30
2023-08-08T12:10:24.769Z,3.03
2023-08-08T12:12:56.723Z,1.47
2023-08-08T12:15:23.326Z,2.23
2023-08-08T12:17:50.277Z,2.50
2023-08-08T12:20:16.992Z,1.50
2023-08-08T12:22:43.657Z,3.03
2023-08-08T12:25:10.185Z,1.83
2023-08-08T12:27:36.774Z,2.20
2023-08-08T12:30:03.516Z,1.53
2023-08-08T12:32:32.577Z,1.93
2023-08-08T12:34:59.203Z,2.83
2023-08-08T12:37:25.829Z,2.13
2023-08-08T12:39:52.448Z,2.80
2023-08-08T12:42:19.424Z,2.90
2023-08-08T12:44:46.374Z,1.70
2023-08-08T12:47:14.317Z,1.73
2023-08-08T12:49:42.036Z,2.00
2023-08-08T12:52:08.683Z,2.27
2023-08-08T12:54:35.544Z,2.00
2023-08-08T12:57:02.255Z,1.47
2023-08-08T12:59:28.986Z,1.77
2023-08-08T13:01:55.582Z,1.27
2023-08-08T13:04:22.308Z,1.50
2023-08-08T13:06:49.693Z,2.57
2023-08-08T13:09:16.849Z,2.83
2023-08-08T13:11:43.392Z,1.53
2023-08-08T13:14:10.145Z,3.00
2023-08-08T13:16:36.736Z,1.27
2023-08-08T13:19:04.735Z,1.70
2023-08-08T13:21:31.302Z,3.00
2023-08-08T13:23:58.494Z,2.03
2023-08-08T13:26:25.108Z,1.47
2023-08-08T13:28:51.625Z,1.33
2023-08-08T13:31:18.269Z,2.23
2023-08-08T13:33:44.830Z,1.23
2023-08-08T13:36:11.351Z,2.10
2023-08-08T13:38:37.827Z,1.63
2023-08-08T13:41:04.481Z,1.70
2023-08-08T13:43:31.576Z,4.57
2023-08-08T13:45:58.301Z,1.03
2023-08-08T13:48:25.390Z,2.67
2023-08-08T13:50:52.402Z,1.63
2023-08-08T13:53:19.028Z,2.37
2023-08-08T13:55:45.758Z,2.10
2023-08-08T13:58:12.422Z,2.17
2023-08-08T14:00:38.936Z,1.77
2023-08-08T14:03:06.076Z,2.93
2023-08-08T14:05:32.729Z,1.40
2023-08-08T14:07:59.259Z,1.60
2023-08-08T14:10:25.817Z,2.00
2023-08-08T14:12:52.312Z,2.37
2023-08-08T14:15:18.837Z,2.60
2023-08-08T14:17:46.566Z,4.07
2023-08-08T14:20:13.167Z,2.90
2023-08-08T14:22:39.720Z,1.30
2023-08-08T14:25:09.808Z,1.73
2023-08-08T14:27:36.307Z,3.87
2023-08-08T14:30:05.010Z,1.97
2023-08-08T14:32:31.765Z,1.70
2023-08-08T14:34:59.927Z,1.70
2023-08-08T14:37:26.563Z,1.60
2023-08-08T14:39:53.108Z,1.20
2023-08-08T14:42:20.344Z,1.27
2023-08-08T14:44:46.851Z,6.30
2023-08-08T14:47:13.330Z,1.63
2023-08-08T14:49:39.852Z,2.30
2023-08-08T14:52:06.358Z,3.50
2023-08-08T14:54:32.829Z,1.90
2023-08-08T14:57:00.949Z,2.00
2023-08-08T14:59:27.843Z,2.03
2023-08-08T15:01:54.425Z,1.90
2023-08-08T15:04:21.020Z,3.17
2023-08-08T15:06:47.969Z,1.63
2023-08-08T15:09:14.539Z,2.50
2023-08-08T15:11:41.609Z,2.20
2023-08-08T15:14:08.095Z,2.93
2023-08-08T15:16:34.595Z,3.57
2023-08-08T15:19:02.461Z,1.50
2023-08-08T15:21:28.973Z,1.80
2023-08-08T15:23:55.483Z,2.03
2023-08-08T15:26:23.545Z,2.83
2023-08-08T15:28:50.425Z,3.67
2023-08-08T15:31:19.619Z,1.57
2023-08-08T15:33:46.541Z,1.60
2023-08-08T15:36:13.128Z,2.17
2023-08-08T15:38:39.626Z,1.63
2023-08-08T15:41:06.153Z,2.10
2023-08-08T15:43:32.664Z,2.50
2023-08-08T15:46:00.315Z,1.57
2023-08-08T15:48:27.206Z,2.37
2023-08-08T15:50:53.770Z,2.50
2023-08-08T15:53:20.869Z,2.10
2023-08-08T15:55:47.631Z,4.40
2023-08-08T15:58:14.140Z,1.60
2023-08-08T16:00:40.803Z,2.23
2023-08-08T16:03:07.464Z,1.90
2023-08-08T16:05:34.156Z,1.60
2023-08-08T16:08:02.011Z,1.23
2023-08-08T16:10:28.850Z,2.80
2023-08-08T16:12:55.500Z,3.10
2023-08-08T16:15:22.718Z,2.77
2023-08-08T16:17:49.448Z,2.67
2023-08-08T16:20:18.280Z,4.20
2023-08-08T16:22:46.040Z,2.90
2023-08-08T16:25:12.613Z,1.60
2023-08-08T16:27:39.135Z,2.33
2023-08-08T16:30:06.236Z,3.23
2023-08-08T16:32:32.970Z,2.13
2023-08-08T16:34:59.667Z,2.80
2023-08-08T16:37:27.016Z,2.27
2023-08-08T16:39:55.744Z,2.40
2023-08-08T16:42:22.218Z,4.20
2023-08-08T16:44:48.737Z,1.30
2023-08-08T16:47:15.300Z,2.70
2023-08-08T16:49:41.827Z,2.00
2023-08-08T16:52:08.290Z,2.93
2023-08-08T16:54:35.019Z,1.93
2023-08-08T16:57:01.976Z,1.60
2023-08-08T16:59:28.483Z,2.50
2023-08-08T17:01:55.352Z,3.23
2023-08-08T17:04:21.837Z,3.70
2023-08-08T17:06:48.364Z,3.17
2023-08-08T17:09:15.085Z,1.80
2023-08-08T17:11:41.613Z,2.23
2023-08-08T17:14:08.228Z,2.67
2023-08-08T17:16:34.847Z,2.53
2023-08-08T17:19:01.376Z,2.50
2023-08-08T17:21:27.864Z,2.00
2023-08-08T17:23:54.458Z,6.17
2023-08-08T17:26:21.009Z,2.33
2023-08-08T17:28:48.501Z,3.10
2023-08-08T17:31:15.101Z,2.37
2023-08-08T17:33:41.605Z,3.93
2023-08-08T17:36:08.106Z,3.23
2023-08-08T17:38:34.621Z,3.73
2023-08-08T17:41:01.120Z,3.90
2023-08-08T17:43:27.992Z,3.37
2023-08-08T17:45:56.974Z,2.90
2023-08-08T17:48:23.470Z,4.27
2023-08-08T17:50:50.006Z,1.70
2023-08-08T17:53:16.505Z,2.30
2023-08-08T17:55:43.034Z,2.20
2023-08-08T17:58:09.554Z,3.13
2023-08-08T18:00:36.056Z,2.43
2023-08-08T18:03:02.826Z,2.40
2023-08-08T18:05:30.488Z,4.77
2023-08-08T18:07:57.147Z,3.50
2023-08-08T18:10:23.673Z,2.77
2023-08-08T18:12:50.221Z,2.70
2023-08-08T18:15:16.678Z,2.20
2023-08-08T18:17:43.244Z,3.33
2023-08-08T18:20:10.618Z,2.10
2023-08-08T18:22:37.578Z,3.80
2023-08-08T18:25:04.895Z,4.40
2023-08-08T18:27:31.567Z,6.40
2023-08-08T18:29:58.196Z,5.47
2023-08-08T18:32:24.717Z,3.50
2023-08-08T18:34:51.331Z,3.27
2023-08-08T18:37:17.868Z,5.67
2023-08-08T18:39:44.507Z,2.60
2023-08-08T18:42:10.984Z,3.10
2023-08-08T18:44:37.464Z,5.17
2023-08-08T18:47:04.433Z,3.63
2023-08-08T18:49:30.982Z,7.63
2023-08-08T18:51:57.496Z,2.97
2023-08-08T18:54:24.081Z,2.40
2023-08-08T18:56:51.150Z,2.90
2023-08-08T18:59:17.668Z,3.20
2023-08-08T19:01:44.211Z,3.20
2023-08-08T19:04:10.753Z,3.30
2023-08-08T19:06:37.288Z,2.60
2023-08-08T19:09:09.153Z,2.07
2023-08-08T19:11:36.669Z,6.37
2023-08-08T19:14:03.410Z,6.27
2023-08-08T19:16:31.917Z,3.27
2023-08-08T19:18:58.519Z,3.50
2023-08-08T19:21:25.307Z,3.50
2023-08-08T19:23:53.028Z,3.33
2023-08-08T19:26:19.580Z,7.00
2023-08-08T19:28:46.780Z,2.80
2023-08-08T19:31:15.293Z,4.83
2023-08-08T19:33:51.754Z,3.77
2023-08-08T19:36:22.765Z,6.40
2023-08-08T19:38:49.253Z,3.73
2023-08-08T19:41:15.758Z,3.97
2023-08-08T19:43:42.356Z,3.57
2023-08-08T19:46:09.576Z,3.50
2023-08-08T19:48:36.173Z,3.20
2023-08-08T19:51:03.024Z,3.73
2023-08-08T19:53:29.631Z,4.67
2023-08-08T19:55:59.026Z,3.63
2023-08-08T19:58:28.659Z,3.37
2023-08-08T20:00:55.188Z,3.50
2023-08-08T20:03:21.750Z,2.63
2023-08-08T20:05:48.330Z,3.20
2023-08-08T20:08:14.828Z,3.63
2023-08-08T20:10:41.346Z,3.37
2023-08-08T20:13:07.942Z,3.47
2023-08-08T20:15:34.582Z,3.33
2023-08-08T20:18:01.326Z,3.20
2023-08-08T20:20:27.934Z,3.70
2023-08-08T20:22:54.729Z,4.43
2023-08-08T20:25:21.249Z,3.70
2023-08-08T20:27:48.197Z,3.17
2023-08-08T20:30:14.945Z,3.10
2023-08-08T20:32:41.453Z,3.13
2023-08-08T20:35:08.331Z,4.50
2023-08-08T20:37:34.901Z,3.23
2023-08-08T20:40:01.462Z,3.10
2023-08-08T20:42:28.110Z,4.47
2023-08-08T20:44:54.594Z,3.40
2023-08-08T20:47:21.169Z,3.90
2023-08-08T20:49:48.939Z,4.30
2023-08-08T20:52:16.465Z,5.20
2023-08-08T20:54:42.932Z,6.53
2023-08-08T20:57:09.439Z,3.90
2023-08-08T20:59:35.914Z,4.10
2023-08-08T21:02:02.469Z,5.57
2023-08-08T21:04:28.999Z,3.10
2023-08-08T21:06:55.574Z,5.37
2023-08-08T21:09:22.257Z,5.50
2023-08-08T21:11:48.785Z,5.10
2023-08-08T21:14:15.293Z,3.57
2023-08-08T21:16:41.826Z,5.13
2023-08-08T21:19:08.399Z,7.20
2023-08-08T21:21:34.970Z,3.03
2023-08-08T21:24:01.669Z,7.07
2023-08-08T21:26:38.442Z,4.20
2023-08-08T21:29:06.840Z,9.80
2023-08-08T21:31:33.353Z,5.87
2023-08-08T21:33:59.907Z,3.57
2023-08-08T21:36:26.516Z,3.10
2023-08-08T21:38:53.093Z,3.73
2023-08-08T21:41:19.646Z,3.53
2023-08-08T21:43:46.160Z,4.33
2023-08-08T21:46:12.950Z,3.57
2023-08-08T21:48:39.538Z,4.33
2023-08-08T21:51:06.174Z,4.93
2023-08-08T21:53:34.220Z,5.30
2023-08-08T21:56:02.117Z,5.87
2023-08-08T21:58:29.232Z,4.07
2023-08-08T22:00:55.891Z,5.00
2023-08-08T22:03:23.721Z,4.47
2023-08-08T22:05:50.276Z,4.83
2023-08-08T22:08:16.811Z,4.60
2023-08-08T22:10:43.565Z,8.03
2023-08-08T22:13:10.893Z,7.97
2023-08-08T22:15:38.168Z,5.50
2023-08-08T22:18:25.057Z,3.90
2023-08-08T22:20:51.643Z,5.60
2023-08-08T22:23:20.247Z,3.90
2023-08-08T22:25:49.061Z,3.17
2023-08-08T22:28:15.600Z,3.40
2023-08-08T22:30:42.199Z,5.40
2023-08-08T22:33:08.937Z,3.53
2023-08-08T22:35:35.532Z,4.60
2023-08-08T22:38:02.092Z,4.27
2023-08-08T22:40:29.045Z,3.90
2023-08-08T22:42:55.593Z,6.33
2023-08-08T22:45:22.428Z,3.70
2023-08-08T22:47:49.141Z,4.20
2023-08-08T22:50:15.886Z,4.87
2023-08-08T22:52:42.386Z,4.60
2023-08-08T22:55:10.046Z,6.50
2023-08-08T22:57:36.845Z,3.23
2023-08-08T23:00:05.353Z,4.50
2023-08-08T23:02:31.898Z,6.00
2023-08-08T23:04:58.768Z,4.83
2023-08-08T23:07:25.330Z,4.97
2023-08-08T23:09:51.833Z,6.97
2023-08-08T23:12:18.336Z,5.20
2023-08-08T23:14:44.971Z,5.00
2023-08-08T23:17:11.523Z,3.40
2023-08-08T23:19:38.396Z,4.30
2023-08-08T23:22:05.089Z,3.87
2023-08-08T23:24:31.631Z,3.17
2023-08-08T23:26:58.183Z,4.17
2023-08-08T23:29:25.668Z,4.30
2023-08-08T23:31:52.464Z,3.57
2023-08-08T23:34:19.100Z,3.80
2023-08-08T23:36:45.632Z,4.33
2023-08-08T23:39:12.646Z,6.33
2023-08-08T23:41:39.309Z,4.57
2023-08-08T23:44:06.204Z,3.83
2023-08-08T23:46:32.690Z,4.10
2023-08-08T23:48:59.214Z,5.20
2023-08-08T23:51:25.774Z,3.60
2023-08-08T23:53:52.269Z,3.60
2023-08-08T23:56:18.796Z,5.50
2023-08-08T23:58:45.353Z,5.33
